Date,TemperatureHighF,TemperatureAvgF,TemperatureLowF,DewpointHighF,DewpointAvgF,DewpointLowF,HumidityHigh,HumidityAvg,HumidityLow,PressureMaxIn,PressureMinIn,WindSpeedMaxMPH,WindSpeedAvgMPH,GustSpeedMaxMPH,PrecipitationSumIn
2013-1-1,53.5,41.4,36.2,45.3,41.0,29.8,99,99,93,29.91,29.91,13,1,18,0.84
2013-1-2,41.4,38.6,36.5,41.1,38.1,35.7,99,98,93,29.91,29.91,11,2,18,0.07
2013-1-3,46.7,37.5,30.7,36.0,33.3,28.1,99,86,57,29.91,29.91,5,0,8,0.00
2013-1-4,42.5,32.4,25.1,31.2,28.0,24.3,97,85,62,29.91,29.91,6,1,9,0.00
2013-1-5,48.6,35.2,21.6,40.8,30.8,20.7,99,85,59,29.91,29.91,5,0,9,0.04
2013-1-6,47.6,41.4,38.5,43.1,39.6,34.1,99,93,80,29.91,29.91,9,3,20,0.02
2013-1-7,44.0,33.7,27.9,38.3,31.0,26.9,98,90,78,29.91,29.91,7,1,12,0.00
2013-1-8,53.5,32.9,24.8,42.8,30.4,23.6,99,91,66,29.91,29.91,3,0,7,0.00
2013-1-9,48.1,41.4,37.3,47.8,40.8,35.7,99,98,92,29.91,29.91,3,0,6,0.12
2013-1-10,61.9,50.7,46.7,59.5,50.1,46.4,99,98,91,29.91,29.91,5,1,9,0.00
2013-1-11,64.6,56.5,53.2,64.3,56.2,52.9,99,99,99,29.91,29.91,13,2,26,0.03
2013-1-12,71.7,64.5,56.7,70.2,64.0,56.4,99,98,94,29.91,29.91,9,2,18,0.02
2013-1-13,67.9,61.2,53.1,66.1,60.6,52.8,99,98,88,29.91,29.91,10,2,20,0.98
2013-1-14,61.6,47.0,40.0,61.3,46.7,39.7,99,99,99,29.91,29.91,9,3,17,1.34
2013-1-15,42.6,41.0,39.9,42.3,40.7,39.6,99,99,99,29.91,29.91,7,2,13,2.08
2013-1-16,47.7,43.4,41.6,47.4,43.1,41.3,99,99,99,29.91,29.91,9,1,15,0.54
2013-1-17,42.5,37.4,31.5,42.2,37.1,31.3,99,99,95,29.91,29.91,7,3,16,0.85
2013-1-18,45.4,33.7,22.1,40.8,32.0,21.9,99,94,74,29.91,29.91,3,0,7,0.28
2013-1-19,51.3,35.9,25.6,43.0,33.7,25.4,99,92,67,29.91,29.91,8,1,14,0.00
2013-1-20,58.1,44.1,33.8,44.9,38.3,33.0,98,81,58,29.91,29.91,8,2,14,0.00
2013-1-21,48.0,36.5,26.2,33.5,26.1,16.5,99,69,42,29.91,29.91,13,3,20,0.00
2013-1-22,34.4,26.3,21.8,16.3,9.8,2.8,61,50,36,29.91,29.91,8,3,15,0.00
2013-1-23,44.2,30.9,23.2,33.4,16.4,9.2,76,55,44,29.91,29.91,10,2,16,0.00
2013-1-24,42.3,36.3,27.6,36.4,25.7,14.7,85,66,41,29.91,29.91,12,5,20,0.00
2013-1-25,33.9,30.3,26.3,33.6,26.9,14.5,99,88,59,29.91,29.91,6,1,12,0.25
2013-1-26,45.7,36.9,30.5,39.5,34.6,30.2,99,92,74,29.91,29.91,7,1,12,0.02
2013-1-27,47.7,37.4,24.8,43.3,35.1,24.6,99,92,76,29.91,29.91,6,0,8,0.02
2013-1-28,54.6,44.1,39.4,53.0,42.8,39.1,99,95,81,29.91,29.91,8,1,16,0.03
2013-1-29,66.8,52.2,44.5,62.1,51.3,44.2,99,97,85,29.91,29.91,5,0,9,0.00
2013-1-30,67.7,57.2,43.0,66.1,56.7,41.1,99,98,93,29.91,29.91,18,5,35,2.61
2013-1-31,43.0,36.6,33.3,40.3,30.8,27.2,94,80,64,29.91,29.91,14,9,29,0.00